createdAt,value
2023-05-14T00:00:47.341Z,10.40
2023-05-14T00:03:15.464Z,10.40
2023-05-14T00:05:49.667Z,10.30
2023-05-14T00:08:17.544Z,10.40
2023-05-14T00:10:53.642Z,10.30
2023-05-14T00:13:21.624Z,10.20
2023-05-14T00:15:55.630Z,10.30
2023-05-14T00:18:29.912Z,10.20
2023-05-14T00:21:04.710Z,10.20
2023-05-14T00:23:32.563Z,10.20
2023-05-14T00:26:01.756Z,10.30
2023-05-14T00:28:35.684Z,10.20
2023-05-14T00:31:03.577Z,10.20
2023-05-14T00:33:37.636Z,10.20
2023-05-14T00:36:05.825Z,10.20
2023-05-14T00:38:39.678Z,10.20
2023-05-14T00:41:15.795Z,10.10
2023-05-14T00:43:49.803Z,10.10
2023-05-14T00:46:17.922Z,10.00
2023-05-14T00:48:46.183Z,10.00
2023-05-14T00:51:20.636Z,9.80
2023-05-14T00:53:49.184Z,9.80
2023-05-14T00:56:25.635Z,9.80
2023-05-14T00:58:53.512Z,9.80
2023-05-14T01:01:27.714Z,9.80
2023-05-14T01:03:57.957Z,9.90
2023-05-14T01:06:42.833Z,9.90
2023-05-14T01:09:18.437Z,9.80
2023-05-14T01:12:06.705Z,9.80
2023-05-14T01:14:42.045Z,9.90
2023-05-14T01:17:18.701Z,9.80
2023-05-14T01:19:48.543Z,9.80
2023-05-14T01:22:18.082Z,9.90
2023-05-14T01:24:52.753Z,9.90
2023-05-14T01:27:27.153Z,10.10
2023-05-14T01:30:10.707Z,10.20
2023-05-14T01:32:40.584Z,10.20
2023-05-14T01:35:16.681Z,10.20
2023-05-14T01:37:46.926Z,10.10
2023-05-14T01:40:28.632Z,10.00
2023-05-14T01:43:04.483Z,10.10
2023-05-14T01:45:42.793Z,10.20
2023-05-14T01:48:11.086Z,10.10
2023-05-14T01:50:39.191Z,10.20
2023-05-14T01:53:14.688Z,10.30
2023-05-14T01:55:42.614Z,10.30
2023-05-14T01:58:16.734Z,10.30
2023-05-14T02:00:44.779Z,10.20
2023-05-14T02:03:18.711Z,10.30
2023-05-14T02:05:46.579Z,10.30
2023-05-14T02:08:15.777Z,10.30
2023-05-14T02:10:50.648Z,10.30
2023-05-14T02:13:18.531Z,10.30
2023-05-14T02:15:52.705Z,10.40
2023-05-14T02:18:20.603Z,10.50
2023-05-14T02:20:54.808Z,10.40
2023-05-14T02:23:34.189Z,10.50
2023-05-14T02:26:12.711Z,10.70
2023-05-14T02:28:40.454Z,10.90
2023-05-14T02:31:08.242Z,11.00
2023-05-14T02:33:42.747Z,11.00
2023-05-14T02:36:10.620Z,11.10
2023-05-14T02:38:46.651Z,11.10
2023-05-14T02:41:21.698Z,11.10
2023-05-14T02:43:55.672Z,11.20
2023-05-14T02:46:23.603Z,11.30
2023-05-14T02:48:57.833Z,11.30
2023-05-14T02:51:26.448Z,11.30
2023-05-14T02:53:55.616Z,11.30
2023-05-14T02:56:29.654Z,11.20
2023-05-14T02:58:57.547Z,11.20
2023-05-14T03:01:32.667Z,11.20
2023-05-14T03:04:01.090Z,11.20
2023-05-14T03:06:35.658Z,11.20
2023-05-14T03:09:05.061Z,11.20
2023-05-14T03:11:39.839Z,11.20
2023-05-14T03:14:07.695Z,11.20
2023-05-14T03:16:35.692Z,11.20
2023-05-14T03:19:10.860Z,11.30
2023-05-14T03:21:38.764Z,11.30
2023-05-14T03:24:14.706Z,11.40
2023-05-14T03:26:42.620Z,11.40
2023-05-14T03:29:17.776Z,11.40
2023-05-14T03:31:45.917Z,11.40
2023-05-14T03:34:20.730Z,11.40
2023-05-14T03:36:48.654Z,11.30
2023-05-14T03:39:19.700Z,11.50
2023-05-14T03:41:53.700Z,12.00
2023-05-14T03:44:21.449Z,12.40
2023-05-14T03:46:55.722Z,12.90
2023-05-14T03:49:23.608Z,13.30
2023-05-14T03:51:57.709Z,13.80
2023-05-14T03:54:27.775Z,14.30
2023-05-14T03:56:55.599Z,14.60
2023-05-14T03:59:29.724Z,14.90
2023-05-14T04:01:57.577Z,14.90
2023-05-14T04:04:31.748Z,15.40
2023-05-14T04:06:59.710Z,15.00
2023-05-14T04:09:35.733Z,15.10
2023-05-14T04:12:03.784Z,15.10
2023-05-14T04:14:37.835Z,14.70
2023-05-14T04:17:05.960Z,13.80
2023-05-14T04:19:34.026Z,13.70
2023-05-14T04:22:08.765Z,15.00
2023-05-14T04:24:38.074Z,16.10
2023-05-14T04:27:12.694Z,16.80
2023-05-14T04:29:40.547Z,17.30
2023-05-14T04:32:15.739Z,17.90
2023-05-14T04:34:43.656Z,18.40
2023-05-14T04:37:17.875Z,18.30
2023-05-14T04:40:07.702Z,18.10
2023-05-14T04:42:41.842Z,18.90
2023-05-14T04:45:10.450Z,18.90
2023-05-14T04:47:38.430Z,20.00
2023-05-14T04:50:15.825Z,19.50
2023-05-14T04:52:43.734Z,16.90
2023-05-14T04:55:19.759Z,15.30
2023-05-14T04:57:47.617Z,14.60
2023-05-14T05:00:23.937Z,14.60
2023-05-14T05:02:52.080Z,15.80
2023-05-14T05:05:26.889Z,17.90
2023-05-14T05:07:55.472Z,18.60
2023-05-14T05:10:25.291Z,18.70
2023-05-14T05:12:59.728Z,18.40
2023-05-14T05:15:27.627Z,17.70
2023-05-14T05:18:01.754Z,16.60
2023-05-14T05:20:29.637Z,16.50
2023-05-14T05:23:03.895Z,19.30
2023-05-14T05:25:33.161Z,20.60
2023-05-14T05:28:01.104Z,21.30
2023-05-14T05:30:36.714Z,19.70
2023-05-14T05:33:05.113Z,19.50
2023-05-14T05:35:39.704Z,19.80
2023-05-14T05:38:07.784Z,20.30
2023-05-14T05:40:43.808Z,20.00
2023-05-14T05:43:13.853Z,17.90
2023-05-14T05:45:48.869Z,16.40
2023-05-14T05:48:16.704Z,15.20
2023-05-14T05:50:47.982Z,14.90
2023-05-14T05:53:24.069Z,15.00
2023-05-14T05:55:53.224Z,15.70
2023-05-14T05:58:30.756Z,15.70
2023-05-14T06:00:59.892Z,15.70
2023-05-14T06:03:34.734Z,16.40
2023-05-14T06:06:03.119Z,16.70
2023-05-14T06:08:37.874Z,16.70
2023-05-14T06:11:07.023Z,17.20
2023-05-14T06:13:34.852Z,17.10
2023-05-14T06:16:09.760Z,17.60
2023-05-14T06:18:44.888Z,17.80
2023-05-14T06:21:19.692Z,18.00
2023-05-14T06:23:48.241Z,18.00
2023-05-14T06:26:24.728Z,17.60
2023-05-14T06:28:52.517Z,18.00
2023-05-14T06:31:27.864Z,18.00
2023-05-14T06:33:55.705Z,18.50
2023-05-14T06:36:23.602Z,18.30
2023-05-14T06:38:57.797Z,18.10
2023-05-14T06:41:33.853Z,18.50
2023-05-14T06:44:14.730Z,18.20
2023-05-14T06:46:42.563Z,18.10
2023-05-14T06:49:16.880Z,18.10
2023-05-14T06:51:44.996Z,18.40
2023-05-14T06:54:19.754Z,18.40
2023-05-14T06:56:48.961Z,18.40
2023-05-14T06:59:16.774Z,18.60
2023-05-14T07:01:50.786Z,18.80
2023-05-14T07:04:18.768Z,19.00
2023-05-14T07:06:52.723Z,18.60
2023-05-14T07:09:20.789Z,18.70
2023-05-14T07:11:57.347Z,18.90
2023-05-14T07:14:25.385Z,19.30
2023-05-14T07:16:53.260Z,19.00
2023-05-14T07:19:28.785Z,19.00
2023-05-14T07:21:57.261Z,19.30
2023-05-14T07:24:31.738Z,19.20
2023-05-14T07:27:01.864Z,19.30
2023-05-14T07:29:36.737Z,19.80
2023-05-14T07:32:04.825Z,19.70
2023-05-14T07:34:38.963Z,19.70
2023-05-14T07:37:07.097Z,19.60
2023-05-14T07:39:34.969Z,19.70
2023-05-14T07:42:17.126Z,19.60
2023-05-14T07:44:52.725Z,20.00
2023-05-14T07:47:26.877Z,19.90
2023-05-14T07:49:56.316Z,20.00
2023-05-14T07:52:30.862Z,20.00
2023-05-14T07:54:59.869Z,20.10
2023-05-14T07:57:35.907Z,20.40
2023-05-14T08:00:04.211Z,20.80
2023-05-14T08:02:32.225Z,21.00
2023-05-14T08:05:06.759Z,21.20
2023-05-14T08:07:34.628Z,21.20
2023-05-14T08:10:08.772Z,21.40
2023-05-14T08:12:38.891Z,20.90
2023-05-14T08:15:14.879Z,20.70
2023-05-14T08:17:42.928Z,20.40
2023-05-14T08:20:19.042Z,20.70
2023-05-14T08:22:46.838Z,21.00
2023-05-14T08:25:14.907Z,21.20
2023-05-14T08:27:50.784Z,20.90
2023-05-14T08:30:18.877Z,21.20
2023-05-14T08:32:52.836Z,21.60
2023-05-14T08:35:20.913Z,21.70
2023-05-14T08:37:58.004Z,21.70
2023-05-14T08:40:31.897Z,21.90
2023-05-14T08:43:15.779Z,21.80
2023-05-14T08:45:44.773Z,21.70
2023-05-14T08:48:23.099Z,21.80
2023-05-14T08:50:51.012Z,21.60
2023-05-14T08:53:18.858Z,21.50
2023-05-14T08:55:54.854Z,21.50
2023-05-14T08:58:25.736Z,21.70
2023-05-14T09:01:01.797Z,22.30
2023-05-14T09:03:31.104Z,22.90
2023-05-14T09:06:06.793Z,23.30
2023-05-14T09:08:36.252Z,23.60
2023-05-14T09:11:04.057Z,23.50
2023-05-14T09:13:39.789Z,23.50
2023-05-14T09:16:08.655Z,22.90
2023-05-14T09:18:43.912Z,22.40
2023-05-14T09:21:14.088Z,22.20
2023-05-14T09:23:51.049Z,22.10
2023-05-14T09:26:19.496Z,22.60
2023-05-14T09:28:48.721Z,22.90
2023-05-14T09:31:22.826Z,23.10
2023-05-14T09:33:54.513Z,23.10
2023-05-14T09:36:28.819Z,22.80
2023-05-14T09:38:58.066Z,22.70
2023-05-14T09:41:46.878Z,22.80
2023-05-14T09:44:23.365Z,23.00
2023-05-14T09:46:57.988Z,23.30
2023-05-14T09:49:26.048Z,23.50
2023-05-14T09:51:57.195Z,23.70
2023-05-14T09:54:33.867Z,23.70
2023-05-14T09:57:01.918Z,23.90
2023-05-14T09:59:41.037Z,23.70
2023-05-14T10:02:17.432Z,23.80
2023-05-14T10:04:53.114Z,23.80
2023-05-14T10:07:24.815Z,24.00
2023-05-14T10:10:05.041Z,23.80
2023-05-14T10:12:36.264Z,24.00
2023-05-14T10:15:20.790Z,24.30
2023-05-14T10:17:51.238Z,24.30
2023-05-14T10:20:26.187Z,24.30
2023-05-14T10:22:54.346Z,24.20
2023-05-14T10:25:22.835Z,24.50
2023-05-14T10:27:56.789Z,24.90
2023-05-14T10:30:27.207Z,24.40
2023-05-14T10:33:16.006Z,24.40
2023-05-14T10:35:57.588Z,24.10
2023-05-14T10:38:34.817Z,24.20
2023-05-14T10:41:10.935Z,24.50
2023-05-14T10:43:52.888Z,23.80
2023-05-14T10:46:22.320Z,24.10
2023-05-14T10:48:51.075Z,24.40
2023-05-14T10:51:26.883Z,24.30
2023-05-14T10:53:54.806Z,23.20
2023-05-14T10:56:29.854Z,23.40
2023-05-14T10:59:07.065Z,23.20
2023-05-14T11:01:42.890Z,23.20
2023-05-14T11:04:10.898Z,23.60
2023-05-14T11:06:47.015Z,23.90
2023-05-14T11:09:18.526Z,23.90
2023-05-14T11:11:54.110Z,24.40
2023-05-14T11:14:22.420Z,24.30
2023-05-14T11:16:51.969Z,24.70
2023-05-14T11:19:29.896Z,25.00
2023-05-14T11:21:57.848Z,24.90
2023-05-14T11:24:32.874Z,24.80
2023-05-14T11:27:00.727Z,25.10
2023-05-14T11:29:34.832Z,25.00
2023-05-14T11:32:06.174Z,24.80
2023-05-14T11:34:41.100Z,25.10
2023-05-14T11:37:10.156Z,25.10
2023-05-14T11:39:38.438Z,25.20
2023-05-14T11:42:17.825Z,25.20
2023-05-14T11:44:46.721Z,24.70
2023-05-14T11:47:24.074Z,24.20
2023-05-14T11:49:52.079Z,23.90
2023-05-14T11:52:27.851Z,23.40
2023-05-14T11:54:55.663Z,23.20
2023-05-14T11:57:30.966Z,23.80
2023-05-14T11:59:58.864Z,24.40
2023-05-14T12:02:29.467Z,24.70
2023-05-14T12:05:04.810Z,24.80
2023-05-14T12:07:32.795Z,25.20
2023-05-14T12:10:09.839Z,25.40
2023-05-14T12:12:37.871Z,25.00
2023-05-14T12:15:19.847Z,25.30
2023-05-14T12:17:52.523Z,25.40
2023-05-14T12:20:27.178Z,25.60
2023-05-14T12:22:55.379Z,25.70
2023-05-14T12:25:23.195Z,25.60
2023-05-14T12:27:57.890Z,25.40
2023-05-14T12:30:25.852Z,25.60
2023-05-14T12:33:01.874Z,25.60
2023-05-14T12:35:29.675Z,25.60
2023-05-14T12:38:04.101Z,25.00
2023-05-14T12:40:51.860Z,25.30
2023-05-14T12:43:28.008Z,25.10
2023-05-14T12:45:56.047Z,25.00
2023-05-14T12:48:25.265Z,24.50
2023-05-14T12:50:59.860Z,25.00
2023-05-14T12:53:27.762Z,24.90
2023-05-14T12:56:02.858Z,24.70
2023-05-14T12:58:30.740Z,24.80
2023-05-14T13:01:04.884Z,25.10
2023-05-14T13:03:34.186Z,25.00
2023-05-14T13:06:02.310Z,24.90
2023-05-14T13:08:36.842Z,25.00
2023-05-14T13:11:04.656Z,24.70
2023-05-14T13:13:38.915Z,24.50
2023-05-14T13:16:07.478Z,24.30
2023-05-14T13:18:43.050Z,24.30
2023-05-14T13:21:11.044Z,24.30
2023-05-14T13:23:38.963Z,24.90
2023-05-14T13:26:12.846Z,24.80
2023-05-14T13:28:40.917Z,24.80
2023-05-14T13:31:16.890Z,24.60
2023-05-14T13:33:46.487Z,24.60
2023-05-14T13:36:22.975Z,24.70
2023-05-14T13:38:50.903Z,24.40
2023-05-14T13:41:33.071Z,24.60
2023-05-14T13:44:07.069Z,24.50
2023-05-14T13:46:41.996Z,24.60
2023-05-14T13:49:11.204Z,24.60
2023-05-14T13:51:39.021Z,24.80
2023-05-14T13:54:14.868Z,24.80
2023-05-14T13:56:42.753Z,24.70
2023-05-14T13:59:17.896Z,24.40
2023-05-14T14:01:45.745Z,24.20
2023-05-14T14:04:22.921Z,23.80
2023-05-14T14:06:50.796Z,23.70
2023-05-14T14:09:25.049Z,23.60
2023-05-14T14:11:53.122Z,23.60
2023-05-14T14:14:21.052Z,23.80
2023-05-14T14:16:55.841Z,24.00
2023-05-14T14:19:24.982Z,24.30
2023-05-14T14:21:58.879Z,24.20
2023-05-14T14:24:26.818Z,23.70
2023-05-14T14:27:01.153Z,23.10
2023-05-14T14:29:31.112Z,22.80
2023-05-14T14:31:59.213Z,22.80
2023-05-14T14:34:34.875Z,22.60
2023-05-14T14:37:10.125Z,22.30
2023-05-14T14:39:38.180Z,22.00
2023-05-14T14:42:26.067Z,21.90
2023-05-14T14:44:53.998Z,21.70
2023-05-14T14:47:22.908Z,22.00
2023-05-14T14:49:58.965Z,22.50
2023-05-14T14:52:27.564Z,23.00
2023-05-14T14:55:02.871Z,22.60
2023-05-14T14:57:30.887Z,22.20
2023-05-14T15:00:04.916Z,22.00
2023-05-14T15:02:32.959Z,22.00
2023-05-14T15:05:02.177Z,22.30
2023-05-14T15:07:38.900Z,22.60
2023-05-14T15:10:07.953Z,22.50
2023-05-14T15:12:41.961Z,22.30
2023-05-14T15:15:11.026Z,22.00
2023-05-14T15:17:46.093Z,21.90
2023-05-14T15:20:15.705Z,22.20
2023-05-14T15:22:43.500Z,22.10
2023-05-14T15:25:17.906Z,21.90
2023-05-14T15:27:45.711Z,21.90
2023-05-14T15:30:21.877Z,21.80
2023-05-14T15:32:49.691Z,21.90
2023-05-14T15:35:26.190Z,21.90
2023-05-14T15:37:56.486Z,22.00
2023-05-14T15:40:31.051Z,22.10
2023-05-14T15:43:05.847Z,21.90
2023-05-14T15:45:40.164Z,21.80
2023-05-14T15:48:08.094Z,21.80
2023-05-14T15:50:38.375Z,21.60
2023-05-14T15:53:12.917Z,21.60
2023-05-14T15:55:40.889Z,21.60
2023-05-14T15:58:14.901Z,21.30
2023-05-14T16:00:42.783Z,21.20
2023-05-14T16:03:18.003Z,21.20
2023-05-14T16:05:48.514Z,21.30
2023-05-14T16:08:23.227Z,21.30
2023-05-14T16:10:50.999Z,21.20
2023-05-14T16:13:19.004Z,21.20
2023-05-14T16:15:52.910Z,21.20
2023-05-14T16:18:20.853Z,21.10
2023-05-14T16:20:56.926Z,21.00
2023-05-14T16:23:24.751Z,20.90
2023-05-14T16:25:59.074Z,20.90
2023-05-14T16:28:27.053Z,20.90
2023-05-14T16:30:54.801Z,20.90
2023-05-14T16:33:28.880Z,20.80
2023-05-14T16:35:58.050Z,20.80
2023-05-14T16:38:32.948Z,20.70
2023-05-14T16:41:09.380Z,20.70
2023-05-14T16:43:49.937Z,20.60
2023-05-14T16:46:18.272Z,20.50
2023-05-14T16:48:53.110Z,20.50
2023-05-14T16:51:22.278Z,20.40
2023-05-14T16:53:50.242Z,20.40
2023-05-14T16:56:24.973Z,20.30
2023-05-14T16:58:59.754Z,20.20
2023-05-14T17:01:33.988Z,20.00
2023-05-14T17:04:01.845Z,20.00
2023-05-14T17:06:37.889Z,19.90
2023-05-14T17:09:06.881Z,19.80
2023-05-14T17:11:41.024Z,19.80
2023-05-14T17:14:08.912Z,19.80
2023-05-14T17:16:38.674Z,19.70
2023-05-14T17:19:13.213Z,19.60
2023-05-14T17:21:42.444Z,19.50
2023-05-14T17:24:16.912Z,19.40
2023-05-14T17:26:44.792Z,19.40
2023-05-14T17:29:18.903Z,19.30
2023-05-14T17:31:48.250Z,19.20
2023-05-14T17:34:24.366Z,19.30
2023-05-14T17:36:53.612Z,19.30
2023-05-14T17:39:21.409Z,19.10
2023-05-14T17:41:55.918Z,18.90
2023-05-14T17:44:30.143Z,18.80
2023-05-14T17:47:04.994Z,18.70
2023-05-14T17:49:33.278Z,18.60
2023-05-14T17:52:08.950Z,18.50
2023-05-14T17:54:37.056Z,18.50
2023-05-14T17:57:12.108Z,18.40
2023-05-14T17:59:39.973Z,18.30
2023-05-14T18:02:07.862Z,18.20
2023-05-14T18:04:41.988Z,18.10
2023-05-14T18:07:11.095Z,18.00
2023-05-14T18:09:45.970Z,17.90
2023-05-14T18:12:13.784Z,17.90
2023-05-14T18:14:48.147Z,17.80
2023-05-14T18:17:17.179Z,17.70
2023-05-14T18:19:45.115Z,17.60
2023-05-14T18:22:21.996Z,17.50
2023-05-14T18:24:49.841Z,17.40
2023-05-14T18:27:24.065Z,17.30
2023-05-14T18:29:53.279Z,17.30
2023-05-14T18:32:27.987Z,17.20
2023-05-14T18:34:55.953Z,17.10
2023-05-14T18:37:32.233Z,16.90
2023-05-14T18:40:00.057Z,16.80
2023-05-14T18:42:41.020Z,16.70
2023-05-14T18:45:09.723Z,16.60
2023-05-14T18:47:39.586Z,16.50
2023-05-14T18:50:15.962Z,16.40
2023-05-14T18:52:45.072Z,16.40
2023-05-14T18:55:18.958Z,16.30
2023-05-14T18:57:47.038Z,16.10
2023-05-14T19:00:22.983Z,15.90
2023-05-14T19:02:50.867Z,15.70
2023-05-14T19:05:25.215Z,15.60
2023-05-14T19:07:54.523Z,15.50
2023-05-14T19:10:22.453Z,15.30
2023-05-14T19:12:57.077Z,15.30
2023-05-14T19:15:25.829Z,15.20
2023-05-14T19:18:01.082Z,15.00
2023-05-14T19:20:29.065Z,14.80
2023-05-14T19:23:05.020Z,14.60
2023-05-14T19:25:33.956Z,14.40
2023-05-14T19:28:10.204Z,14.20
2023-05-14T19:30:38.094Z,14.10
2023-05-14T19:33:06.095Z,14.10
2023-05-14T19:35:40.001Z,14.10
2023-05-14T19:38:10.781Z,14.10
2023-05-14T19:40:45.244Z,14.00
2023-05-14T19:43:21.089Z,14.10
2023-05-14T19:45:56.117Z,14.00
2023-05-14T19:48:24.095Z,13.90
2023-05-14T19:50:51.907Z,13.90
2023-05-14T19:53:27.990Z,13.70
2023-05-14T19:55:55.972Z,13.60
2023-05-14T19:58:29.980Z,13.70
2023-05-14T20:00:58.604Z,13.70
2023-05-14T20:03:33.121Z,13.50
2023-05-14T20:06:00.996Z,13.10
2023-05-14T20:08:37.163Z,12.90
2023-05-14T20:11:05.032Z,13.00
2023-05-14T20:13:33.091Z,13.20
2023-05-14T20:16:07.997Z,13.40
2023-05-14T20:18:36.150Z,13.40
2023-05-14T20:21:11.029Z,13.40
2023-05-14T20:23:40.339Z,13.30
2023-05-14T20:26:14.981Z,13.30
2023-05-14T20:28:43.383Z,13.10
2023-05-14T20:31:18.267Z,12.70
2023-05-14T20:33:46.385Z,12.60
2023-05-14T20:36:14.481Z,12.90
2023-05-14T20:38:50.048Z,13.00
2023-05-14T20:41:17.970Z,13.00
2023-05-14T20:43:59.129Z,13.00
2023-05-14T20:46:27.144Z,12.90
2023-05-14T20:49:03.045Z,12.70
2023-05-14T20:51:30.880Z,12.60
2023-05-14T20:54:07.181Z,12.60
2023-05-14T20:56:36.456Z,12.60
2023-05-14T20:59:04.373Z,12.50
2023-05-14T21:01:39.039Z,12.50
2023-05-14T21:04:07.390Z,12.40
2023-05-14T21:06:42.119Z,12.40
2023-05-14T21:09:11.772Z,12.10
2023-05-14T21:11:46.141Z,11.90
2023-05-14T21:14:14.067Z,11.90
2023-05-14T21:16:42.030Z,11.90
2023-05-14T21:19:16.154Z,12.20
2023-05-14T21:21:44.089Z,12.30
2023-05-14T21:24:20.237Z,12.40
2023-05-14T21:26:48.098Z,12.40
2023-05-14T21:29:22.029Z,12.40
2023-05-14T21:31:50.250Z,12.30
2023-05-14T21:34:25.153Z,12.20
2023-05-14T21:36:53.005Z,12.20
2023-05-14T21:39:37.893Z,12.30
2023-05-14T21:42:27.035Z,12.10
2023-05-14T21:45:00.994Z,11.80
2023-05-14T21:47:29.034Z,11.70
2023-05-14T21:49:57.004Z,11.40
2023-05-14T21:52:31.013Z,11.30
2023-05-14T21:55:00.221Z,11.20
2023-05-14T21:57:35.065Z,11.00
2023-05-14T22:00:03.606Z,10.90
2023-05-14T22:02:39.322Z,10.80
2023-05-14T22:05:07.870Z,10.90
2023-05-14T22:07:35.724Z,11.10
2023-05-14T22:10:12.057Z,11.10
2023-05-14T22:12:39.857Z,11.30
2023-05-14T22:15:15.046Z,11.40
2023-05-14T22:17:43.161Z,11.50
2023-05-14T22:20:18.052Z,11.70
2023-05-14T22:22:45.917Z,11.60
2023-05-14T22:25:22.531Z,11.50
2023-05-14T22:27:50.713Z,11.50
2023-05-14T22:30:18.627Z,11.50
2023-05-14T22:32:53.107Z,11.50
2023-05-14T22:35:21.287Z,11.40
2023-05-14T22:37:56.062Z,11.50
2023-05-14T22:40:25.344Z,11.60
2023-05-14T22:43:06.046Z,11.60
2023-05-14T22:45:40.329Z,11.60
2023-05-14T22:48:15.311Z,11.50
2023-05-14T22:50:43.308Z,11.50
2023-05-14T22:53:11.143Z,11.40
2023-05-14T22:55:47.055Z,11.40
2023-05-14T22:58:14.854Z,11.40
2023-05-14T23:00:49.049Z,11.30
2023-05-14T23:03:16.911Z,11.30
2023-05-14T23:05:51.247Z,11.20
2023-05-14T23:08:19.064Z,11.20
2023-05-14T23:10:48.242Z,11.00
2023-05-14T23:13:23.068Z,11.00
2023-05-14T23:15:51.064Z,11.10
2023-05-14T23:18:25.266Z,11.10
2023-05-14T23:20:53.181Z,11.10
2023-05-14T23:23:28.274Z,11.00
2023-05-14T23:25:57.566Z,11.00
2023-05-14T23:28:32.248Z,11.00
2023-05-14T23:31:00.097Z,11.00
2023-05-14T23:33:28.128Z,11.00
2023-05-14T23:36:03.171Z,11.00
2023-05-14T23:38:31.054Z,11.10
2023-05-14T23:41:07.082Z,11.10
2023-05-14T23:43:41.779Z,11.00
2023-05-14T23:46:16.131Z,11.00
2023-05-14T23:48:44.123Z,11.00
2023-05-14T23:51:18.422Z,10.90
2023-05-14T23:53:46.284Z,10.90
2023-05-14T23:56:15.441Z,11.00
2023-05-14T23:58:50.071Z,11.00
